Time;durP1;ratioP1;P1;durP2;ratioP2;P2;SDS_P1;SDS_P2;PMS_P1;PMS_P2;Temp;Humidity;BMP_temperature;BMP_pressure;BME280_temperature;BME280_humidity;BME280_pressure;Samples;Min_cycle;Max_cycle;Signal;HPM_P1;HPM_P2
2021/07/30 00:02:02;;;;;;;;;;;14.30;99.90;;;;;;5072586;28;19948;-69
2021/07/30 00:04:28;;;;;;;;;;;14.20;99.90;;;;;;5057088;28;19909;-69
2021/07/30 00:06:53;;;;;;;;;;;14.20;99.90;;;;;;5057050;28;19908;-69
2021/07/30 00:09:18;;;;;;;;;;;14.20;99.90;;;;;;5056729;28;20429;-69
2021/07/30 00:11:44;;;;;;;;;;;14.10;99.90;;;;;;5057177;28;19916;-69
2021/07/30 00:14:09;;;;;;;;;;;14.10;99.90;;;;;;5057171;28;19916;-68
2021/07/30 00:16:35;;;;;;;;;;;14.10;99.90;;;;;;5071888;28;19916;-69
2021/07/30 00:19:01;;;;;;;;;;;14.00;99.90;;;;;;5071963;28;19916;-69
2021/07/30 00:21:26;;;;;;;;;;;14.00;99.90;;;;;;5072803;28;20312;-69
2021/07/30 00:23:52;;;;;;;;;;;14.00;99.90;;;;;;5056730;28;19991;-68
2021/07/30 00:26:17;;;;;;;;;;;13.90;99.90;;;;;;5056650;28;20366;-69
2021/07/30 00:28:43;;;;;;;;;;;13.90;99.90;;;;;;5071652;28;19920;-69
2021/07/30 00:31:08;;;;;;;;;;;13.90;99.90;;;;;;5056303;28;19909;-69
2021/07/30 00:33:35;;;;;;;;;;;13.90;99.90;;;;;;5056556;28;19908;-69
2021/07/30 00:36:01;;;;;;;;;;;13.90;99.90;;;;;;5056514;28;19919;-68
2021/07/30 00:38:26;;;;;;;;;;;13.80;99.90;;;;;;5071532;28;19912;-69
2021/07/30 00:40:51;;;;;;;;;;;13.80;99.90;;;;;;5054859;28;19908;-69
2021/07/30 00:43:17;;;;;;;;;;;13.80;99.90;;;;;;5056061;28;19944;-66
2021/07/30 00:45:42;;;;;;;;;;;13.80;99.90;;;;;;5056308;28;19909;-66
2021/07/30 00:48:08;;;;;;;;;;;13.80;99.90;;;;;;5072303;28;19909;-66
2021/07/30 00:50:33;;;;;;;;;;;13.80;99.90;;;;;;5056488;28;20255;-66
2021/07/30 00:52:59;;;;;;;;;;;13.80;99.90;;;;;;5055206;28;19963;-66
2021/07/30 00:55:24;;;;;;;;;;;13.70;99.90;;;;;;5056421;28;20365;-66
2021/07/30 00:57:50;;;;;;;;;;;13.70;99.90;;;;;;5055620;28;20370;-66
2021/07/30 01:00:16;;;;;;;;;;;13.70;99.90;;;;;;5071512;28;19917;-66
2021/07/30 01:02:42;;;;;;;;;;;13.70;99.90;;;;;;5071166;28;19917;-66
2021/07/30 01:05:07;;;;;;;;;;;13.70;99.90;;;;;;5055695;28;19909;-66
2021/07/30 01:07:33;;;;;;;;;;;13.70;99.90;;;;;;5071432;28;20004;-66
2021/07/30 01:09:59;;;;;;;;;;;13.70;99.90;;;;;;5055891;28;19913;-66
2021/07/30 01:12:25;;;;;;;;;;;13.70;99.90;;;;;;5055814;28;19962;-66
2021/07/30 01:14:53;;;;;;;;;;;13.70;99.90;;;;;;5055765;28;19921;-66
2021/07/30 01:17:19;;;;;;;;;;;13.70;99.90;;;;;;5070794;28;19919;-66
2021/07/30 01:19:44;;;;;;;;;;;13.70;99.90;;;;;;5055403;28;19995;-66
2021/07/30 01:22:15;;;;;;;;;;;13.70;99.90;;;;;;5055363;28;19917;-66
2021/07/30 01:24:40;;;;;;;;;;;13.70;99.90;;;;;;5055286;28;19913;-66
2021/07/30 01:27:05;;;;;;;;;;;13.70;99.90;;;;;;5055279;28;20013;-66
2021/07/30 01:29:31;;;;;;;;;;;13.70;99.90;;;;;;5071459;28;19943;-66
2021/07/30 01:31:56;;;;;;;;;;;13.80;99.90;;;;;;5055483;28;20358;-66
2021/07/30 01:34:22;;;;;;;;;;;13.80;99.90;;;;;;5055416;28;19913;-66
2021/07/30 01:36:47;;;;;;;;;;;13.90;99.90;;;;;;5070797;28;20015;-66
2021/07/30 01:39:13;;;;;;;;;;;13.90;99.90;;;;;;5054943;28;19959;-66
2021/07/30 01:41:40;;;;;;;;;;;14.00;99.90;;;;;;5069898;28;19913;-66
2021/07/30 01:44:05;;;;;;;;;;;14.00;99.90;;;;;;5055205;28;20003;-66
2021/07/30 01:46:31;;;;;;;;;;;14.10;99.90;;;;;;5055166;28;19948;-66
2021/07/30 01:48:56;;;;;;;;;;;14.20;99.90;;;;;;5055142;28;19916;-66
2021/07/30 01:51:22;;;;;;;;;;;14.30;99.90;;;;;;5055055;28;19909;-66
2021/07/30 01:53:47;;;;;;;;;;;14.30;99.90;;;;;;5055044;28;20278;-66
2021/07/30 01:56:12;;;;;;;;;;;14.40;99.90;;;;;;5054964;28;19935;-67
2021/07/30 01:58:38;;;;;;;;;;;14.60;99.90;;;;;;5054467;28;19968;-72
2021/07/30 02:01:03;;;;;;;;;;;14.70;99.90;;;;;;5070402;28;19909;-73
2021/07/30 02:03:29;;;;;;;;;;;14.90;99.90;;;;;;5054858;28;19916;-72
2021/07/30 02:05:54;;;;;;;;;;;15.00;99.90;;;;;;5055085;28;19952;-72
2021/07/30 02:08:20;;;;;;;;;;;15.20;99.90;;;;;;5054772;28;19912;-72
2021/07/30 02:10:46;;;;;;;;;;;15.20;99.90;;;;;;5070206;28;19915;-72
2021/07/30 02:15:57;;;;;;;;;;;15.30;99.90;;;;;;5054279;28;19916;-68
2021/07/30 02:18:22;;;;;;;;;;;15.30;99.90;;;;;;5070021;28;19912;-68
2021/07/30 02:20:48;;;;;;;;;;;15.30;99.90;;;;;;5070098;28;19909;-68
2021/07/30 02:23:13;;;;;;;;;;;15.30;99.90;;;;;;5054477;28;19908;-68
2021/07/30 02:25:39;;;;;;;;;;;15.40;99.90;;;;;;5069967;28;19909;-71
2021/07/30 02:28:04;;;;;;;;;;;15.30;99.90;;;;;;5054134;28;19916;-71
2021/07/30 02:30:30;;;;;;;;;;;15.30;99.90;;;;;;5069860;28;19913;-71
2021/07/30 02:32:55;;;;;;;;;;;15.40;99.90;;;;;;5070075;28;19916;-71
2021/07/30 02:35:21;;;;;;;;;;;15.40;99.90;;;;;;5054017;28;19916;-71
2021/07/30 02:37:46;;;;;;;;;;;15.50;99.90;;;;;;5070015;28;20034;-71
2021/07/30 02:40:12;;;;;;;;;;;15.40;99.90;;;;;;5054530;28;19916;-71
2021/07/30 02:42:37;;;;;;;;;;;15.40;99.90;;;;;;5054243;28;19915;-71
2021/07/30 02:45:03;;;;;;;;;;;15.30;99.90;;;;;;5052656;28;19909;-71
2021/07/30 02:47:28;;;;;;;;;;;15.30;99.90;;;;;;5054433;28;19944;-71
2021/07/30 02:49:54;;;;;;;;;;;15.20;99.90;;;;;;5054406;28;19908;-71
2021/07/30 02:52:19;;;;;;;;;;;15.20;99.90;;;;;;5054201;28;19913;-71
2021/07/30 02:54:45;;;;;;;;;;;15.20;99.90;;;;;;5054339;28;19948;-71
2021/07/30 02:57:10;;;;;;;;;;;15.20;99.90;;;;;;5070426;28;19924;-71
2021/07/30 02:59:36;;;;;;;;;;;15.10;99.90;;;;;;5053742;28;19915;-71
2021/07/30 03:02:01;;;;;;;;;;;15.10;99.90;;;;;;5069533;28;19916;-72
2021/07/30 03:04:26;;;;;;;;;;;15.10;99.90;;;;;;5053704;28;19909;-71
2021/07/30 03:06:52;;;;;;;;;;;15.10;99.90;;;;;;5053997;28;19998;-71
2021/07/30 03:09:17;;;;;;;;;;;15.10;99.90;;;;;;5053966;28;20385;-71
2021/07/30 03:11:43;;;;;;;;;;;15.10;99.90;;;;;;5053671;28;20358;-71
2021/07/30 03:14:08;;;;;;;;;;;15.10;99.90;;;;;;5069096;28;19932;-71
2021/07/30 03:16:34;;;;;;;;;;;15.10;99.90;;;;;;5053813;28;19923;-71
2021/07/30 03:19:00;;;;;;;;;;;15.10;99.90;;;;;;5069044;28;19952;-71
2021/07/30 03:21:26;;;;;;;;;;;15.10;99.90;;;;;;5053572;28;19954;-71
2021/07/30 03:23:51;;;;;;;;;;;15.10;99.90;;;;;;5053519;28;20325;-71
2021/07/30 03:26:17;;;;;;;;;;;15.10;99.90;;;;;;5069806;28;19913;-71
2021/07/30 03:28:42;;;;;;;;;;;15.20;99.90;;;;;;5054066;28;20000;-71
2021/07/30 03:31:07;;;;;;;;;;;15.30;99.90;;;;;;5054033;28;19916;-71
2021/07/30 03:33:33;;;;;;;;;;;15.40;99.90;;;;;;5053744;28;19908;-71
2021/07/30 03:35:58;;;;;;;;;;;15.40;99.90;;;;;;5053695;28;19909;-71
2021/07/30 03:38:24;;;;;;;;;;;15.40;99.90;;;;;;5068764;28;19916;-71
2021/07/30 03:40:49;;;;;;;;;;;15.40;99.90;;;;;;5068904;28;19954;-72
2021/07/30 03:43:15;;;;;;;;;;;15.20;99.90;;;;;;5053625;28;20007;-73
2021/07/30 03:45:40;;;;;;;;;;;15.10;99.90;;;;;;5068826;28;19913;-73
2021/07/30 03:48:06;;;;;;;;;;;15.00;99.90;;;;;;5069425;28;19915;-73
2021/07/30 03:50:31;;;;;;;;;;;14.80;99.90;;;;;;5053695;28;20325;-73
2021/07/30 03:53:00;;;;;;;;;;;14.80;99.90;;;;;;5053735;28;20325;-73
2021/07/30 03:55:25;;;;;;;;;;;14.80;99.90;;;;;;5053559;28;19909;-74
2021/07/30 03:57:51;;;;;;;;;;;14.70;99.90;;;;;;5053404;28;20251;-72
2021/07/30 04:00:16;;;;;;;;;;;14.70;99.90;;;;;;5053464;28;19960;-73
2021/07/30 04:02:42;;;;;;;;;;;14.70;99.90;;;;;;5068668;28;19909;-73
2021/07/30 04:05:07;;;;;;;;;;;14.70;99.90;;;;;;5054974;28;19991;-73
2021/07/30 04:07:33;;;;;;;;;;;14.70;99.90;;;;;;5057083;28;19917;-72
2021/07/30 04:09:58;;;;;;;;;;;14.80;99.90;;;;;;5056737;28;19955;-73
2021/07/30 04:12:24;;;;;;;;;;;14.70;99.90;;;;;;5056993;28;20010;-73
2021/07/30 04:14:49;;;;;;;;;;;14.70;99.90;;;;;;5072113;28;20362;-73
2021/07/30 04:17:15;;;;;;;;;;;14.70;99.90;;;;;;5056551;28;20263;-73
2021/07/30 04:19:43;;;;;;;;;;;14.70;99.90;;;;;;5072526;28;19912;-69
2021/07/30 04:22:09;;;;;;;;;;;14.80;99.90;;;;;;5071854;28;19916;-68
2021/07/30 04:24:35;;;;;;;;;;;14.80;99.90;;;;;;5072237;28;19909;-68
2021/07/30 04:27:00;;;;;;;;;;;14.90;99.90;;;;;;5056436;28;19912;-68
2021/07/30 04:29:25;;;;;;;;;;;15.00;99.90;;;;;;5056372;28;20278;-69
2021/07/30 04:31:51;;;;;;;;;;;15.20;99.90;;;;;;5055644;28;19932;-68
2021/07/30 04:34:16;;;;;;;;;;;15.30;99.90;;;;;;5072137;28;20004;-68
2021/07/30 04:36:42;;;;;;;;;;;15.30;99.90;;;;;;5056476;28;19948;-69
2021/07/30 04:39:07;;;;;;;;;;;15.40;99.90;;;;;;5072247;28;19963;-68
2021/07/30 04:41:33;;;;;;;;;;;15.40;99.90;;;;;;5071693;28;19967;-68
2021/07/30 04:43:58;;;;;;;;;;;15.40;99.90;;;;;;5071866;28;19909;-68
2021/07/30 04:46:24;;;;;;;;;;;15.50;99.90;;;;;;5056346;28;19913;-68
2021/07/30 04:48:49;;;;;;;;;;;15.50;99.90;;;;;;5056564;28;19916;-68
2021/07/30 04:51:15;;;;;;;;;;;15.50;99.90;;;;;;5056495;28;19909;-69
2021/07/30 04:53:40;;;;;;;;;;;15.60;99.90;;;;;;5055924;28;20006;-68
2021/07/30 04:56:06;;;;;;;;;;;15.70;99.90;;;;;;5055902;28;19916;-68
2021/07/30 04:58:31;;;;;;;;;;;15.80;99.90;;;;;;5054478;28;20015;-69
2021/07/30 05:00:57;;;;;;;;;;;15.90;99.90;;;;;;5071534;28;19915;-69
2021/07/30 05:03:22;;;;;;;;;;;16.00;99.90;;;;;;5056369;28;20006;-69
2021/07/30 05:05:48;;;;;;;;;;;16.10;99.90;;;;;;5071203;28;19916;-69
2021/07/30 05:08:13;;;;;;;;;;;16.40;99.90;;;;;;5071465;28;19909;-69
2021/07/30 05:10:39;;;;;;;;;;;16.70;99.90;;;;;;5055667;28;19928;-69
2021/07/30 05:13:04;;;;;;;;;;;17.10;99.90;;;;;;5070952;28;19916;-69
2021/07/30 05:15:30;;;;;;;;;;;17.20;99.90;;;;;;5054880;28;19928;-69
2021/07/30 05:17:56;;;;;;;;;;;17.40;99.90;;;;;;5055389;28;19917;-69
2021/07/30 05:20:22;;;;;;;;;;;17.60;99.90;;;;;;5070912;28;19988;-69
2021/07/30 05:22:47;;;;;;;;;;;17.40;99.90;;;;;;5070841;28;19971;-69
2021/07/30 05:25:13;;;;;;;;;;;17.50;99.90;;;;;;5055313;28;19909;-69
2021/07/30 05:27:38;;;;;;;;;;;17.50;99.90;;;;;;5055298;28;19912;-69
2021/07/30 05:30:04;;;;;;;;;;;17.70;99.90;;;;;;5070983;28;20038;-69
2021/07/30 05:32:30;;;;;;;;;;;17.50;99.90;;;;;;5055410;28;19974;-69
2021/07/30 05:34:55;;;;;;;;;;;17.60;99.90;;;;;;5055398;28;19909;-69
2021/07/30 05:37:21;;;;;;;;;;;17.80;99.90;;;;;;5055322;28;19912;-69
2021/07/30 05:39:46;;;;;;;;;;;18.00;99.90;;;;;;5055331;28;19915;-69
2021/07/30 05:42:12;;;;;;;;;;;18.40;99.90;;;;;;5055226;28;19954;-69
2021/07/30 05:44:37;;;;;;;;;;;19.20;99.90;;;;;;5055220;28;19908;-69
2021/07/30 05:47:03;;;;;;;;;;;19.60;99.90;;;;;;5054395;28;19915;-69
2021/07/30 05:49:29;;;;;;;;;;;19.60;99.90;;;;;;5055394;28;19954;-69
2021/07/30 05:51:54;;;;;;;;;;;19.80;99.90;;;;;;5055315;28;19908;-69
2021/07/30 05:54:20;;;;;;;;;;;19.70;99.90;;;;;;5055031;28;20484;-69
2021/07/30 05:56:45;;;;;;;;;;;19.90;99.90;;;;;;5070030;28;19921;-69
2021/07/30 05:59:10;;;;;;;;;;;20.30;99.90;;;;;;5070128;28;19931;-69
2021/07/30 06:01:36;;;;;;;;;;;21.00;99.90;;;;;;5054879;28;19947;-70
2021/07/30 06:04:01;;;;;;;;;;;21.20;99.90;;;;;;5054830;28;19915;-69
2021/07/30 06:06:27;;;;;;;;;;;21.10;99.90;;;;;;5073187;28;19913;-69
2021/07/30 06:08:52;;;;;;;;;;;21.50;99.90;;;;;;5073675;28;20346;-69
2021/07/30 06:11:18;;;;;;;;;;;21.50;99.90;;;;;;5078833;28;20293;-69
2021/07/30 06:13:43;;;;;;;;;;;21.60;99.90;;;;;;5074813;28;20223;-69
2021/07/30 06:16:09;;;;;;;;;;;21.00;99.90;;;;;;5074430;28;19908;-69
2021/07/30 06:18:34;;;;;;;;;;;21.00;99.90;;;;;;5074065;28;19917;-69
2021/07/30 06:21:00;;;;;;;;;;;20.90;99.90;;;;;;5074277;28;19920;-69
2021/07/30 06:23:25;;;;;;;;;;;21.00;99.90;;;;;;5074158;28;19912;-69
2021/07/30 06:25:52;;;;;;;;;;;20.90;99.90;;;;;;5073765;28;20283;-71
2021/07/30 06:28:18;;;;;;;;;;;21.20;99.90;;;;;;5072968;28;20003;-71
2021/07/30 06:30:43;;;;;;;;;;;21.00;99.90;;;;;;5073550;28;20279;-72
2021/07/30 06:33:09;;;;;;;;;;;21.10;99.90;;;;;;5073906;28;19962;-72
2021/07/30 06:35:35;;;;;;;;;;;21.50;99.90;;;;;;5073076;28;19908;-71
2021/07/30 06:38:00;;;;;;;;;;;22.10;99.90;;;;;;5077438;28;20019;-72
2021/07/30 06:40:25;;;;;;;;;;;22.60;99.90;;;;;;5055736;28;19913;-71
2021/07/30 06:42:51;;;;;;;;;;;23.30;99.90;;;;;;5069869;28;19908;-71
2021/07/30 06:45:17;;;;;;;;;;;23.20;99.90;;;;;;5053233;28;19923;-71
2021/07/30 06:47:42;;;;;;;;;;;23.70;99.90;;;;;;5072879;28;19912;-71
2021/07/30 06:50:08;;;;;;;;;;;24.20;99.90;;;;;;5089429;28;19935;-71
2021/07/30 06:52:34;;;;;;;;;;;24.20;99.90;;;;;;5088807;28;19913;-71
2021/07/30 06:54:59;;;;;;;;;;;23.90;99.90;;;;;;5058659;28;19916;-71
2021/07/30 06:57:25;;;;;;;;;;;24.00;99.90;;;;;;5072417;28;19921;-71
2021/07/30 06:59:50;;;;;;;;;;;24.10;99.90;;;;;;5073667;28;19967;-71
2021/07/30 07:02:16;;;;;;;;;;;24.50;99.90;;;;;;5054784;28;19948;-71
2021/07/30 07:04:42;;;;;;;;;;;24.50;99.90;;;;;;5084410;28;19919;-71
2021/07/30 07:07:07;;;;;;;;;;;25.20;99.90;;;;;;5093649;28;19908;-69
2021/07/30 07:09:33;;;;;;;;;;;25.30;99.90;;;;;;5083642;28;19919;-70
2021/07/30 07:11:58;;;;;;;;;;;25.00;99.90;;;;;;5073302;28;20320;-70
2021/07/30 07:14:24;;;;;;;;;;;23.60;99.90;;;;;;5081001;28;19912;-71
2021/07/30 07:16:49;;;;;;;;;;;23.10;99.90;;;;;;5087541;28;19913;-72
2021/07/30 07:19:15;;;;;;;;;;;23.10;99.90;;;;;;5083594;28;19959;-71
2021/07/30 07:21:40;;;;;;;;;;;23.10;99.90;;;;;;5063657;28;19916;-70
2021/07/30 07:24:07;;;;;;;;;;;22.70;99.90;;;;;;5073131;28;20305;-71
2021/07/30 07:26:35;;;;;;;;;;;22.40;99.90;;;;;;5083436;28;19912;-72
2021/07/30 07:29:00;;;;;;;;;;;23.10;99.90;;;;;;5076513;28;19912;-70
2021/07/30 07:31:29;;;;;;;;;;;23.70;99.90;;;;;;5085302;28;19966;-70
2021/07/30 07:33:55;;;;;;;;;;;23.80;99.90;;;;;;5039309;28;20365;-70
2021/07/30 07:36:20;;;;;;;;;;;23.60;99.90;;;;;;5076261;28;20039;-70
2021/07/30 07:38:46;;;;;;;;;;;23.60;99.90;;;;;;5073538;28;20281;-69
2021/07/30 07:41:11;;;;;;;;;;;23.40;99.90;;;;;;5061203;28;19999;-70
2021/07/30 07:43:37;;;;;;;;;;;23.40;99.90;;;;;;5069893;28;19912;-69
2021/07/30 07:46:03;;;;;;;;;;;23.20;99.90;;;;;;5076808;28;19999;-70
2021/07/30 07:48:29;;;;;;;;;;;23.20;99.90;;;;;;5067512;28;19919;-71
2021/07/30 07:50:57;;;;;;;;;;;24.10;99.90;;;;;;5079963;28;19908;-72
2021/07/30 07:53:23;;;;;;;;;;;24.40;99.90;;;;;;5072460;28;19912;-70
2021/07/30 07:55:58;;;;;;;;;;;24.10;99.90;;;;;;5061030;28;19912;-70
2021/07/30 07:58:23;;;;;;;;;;;24.10;99.90;;;;;;5064913;28;19920;-69
2021/07/30 08:00:49;;;;;;;;;;;24.30;99.90;;;;;;5088646;28;20337;-70
2021/07/30 08:03:14;;;;;;;;;;;24.50;99.90;;;;;;5097050;28;20400;-69
2021/07/30 08:05:39;;;;;;;;;;;24.20;99.90;;;;;;5078532;28;20346;-70
2021/07/30 08:08:05;;;;;;;;;;;24.50;99.90;;;;;;5076370;28;20286;-70
2021/07/30 08:10:30;;;;;;;;;;;24.70;99.90;;;;;;5077178;28;20388;-69
2021/07/30 08:12:56;;;;;;;;;;;24.60;99.90;;;;;;5076437;28;19908;-70
2021/07/30 08:15:21;;;;;;;;;;;24.80;99.90;;;;;;5090681;28;19913;-69
2021/07/30 08:17:47;;;;;;;;;;;25.00;99.90;;;;;;5096643;28;19919;-69
2021/07/30 08:20:12;;;;;;;;;;;25.00;99.90;;;;;;5077039;28;20331;-69
2021/07/30 08:22:39;;;;;;;;;;;24.40;99.90;;;;;;5078091;28;20365;-71
2021/07/30 08:25:04;;;;;;;;;;;24.20;99.90;;;;;;5085962;28;19919;-70
2021/07/30 08:27:30;;;;;;;;;;;25.00;99.90;;;;;;5077563;28;20333;-70
2021/07/30 08:29:55;;;;;;;;;;;25.70;99.90;;;;;;5075949;28;19989;-71
2021/07/30 08:32:21;;;;;;;;;;;25.60;99.90;;;;;;5080110;28;19985;-71
2021/07/30 08:34:46;;;;;;;;;;;25.70;99.90;;;;;;5092176;28;19913;-70
2021/07/30 08:37:11;;;;;;;;;;;25.60;99.90;;;;;;5075548;28;19924;-71
2021/07/30 08:39:37;;;;;;;;;;;25.70;99.90;;;;;;5075954;28;19926;-70
2021/07/30 08:42:03;;;;;;;;;;;25.90;99.90;;;;;;5082386;28;19916;-70
2021/07/30 08:44:29;;;;;;;;;;;25.60;99.80;;;;;;5093543;28;20045;-71
2021/07/30 08:46:55;;;;;;;;;;;25.30;99.20;;;;;;5096407;28;19949;-71
2021/07/30 08:49:21;;;;;;;;;;;25.10;99.90;;;;;;5083273;28;19971;-71
2021/07/30 08:51:49;;;;;;;;;;;25.40;99.40;;;;;;5086131;28;19919;-71
2021/07/30 08:54:15;;;;;;;;;;;25.30;99.60;;;;;;5082027;28;20411;-71
2021/07/30 08:56:40;;;;;;;;;;;25.40;99.10;;;;;;5086495;28;19917;-72
2021/07/30 08:59:07;;;;;;;;;;;25.50;99.60;;;;;;5084167;28;19915;-71
2021/07/30 09:01:33;;;;;;;;;;;26.00;98.20;;;;;;5086725;28;20261;-71
2021/07/30 09:03:58;;;;;;;;;;;25.60;99.00;;;;;;5075244;28;19913;-71
2021/07/30 09:06:24;;;;;;;;;;;26.00;98.40;;;;;;5076072;28;19913;-71
2021/07/30 09:09:07;;;;;;;;;;;26.50;97.00;;;;;;5080381;28;19924;-71
2021/07/30 09:11:34;;;;;;;;;;;26.40;97.80;;;;;;5078071;28;19920;-71
2021/07/30 09:14:02;;;;;;;;;;;27.20;97.90;;;;;;5075085;28;19927;-72
2021/07/30 09:16:28;;;;;;;;;;;27.30;95.90;;;;;;5061406;28;20411;-69
2021/07/30 09:18:53;;;;;;;;;;;27.30;96.50;;;;;;5082309;28;19916;-71
2021/07/30 09:21:21;;;;;;;;;;;27.20;96.20;;;;;;5059246;28;19916;-71
2021/07/30 09:23:48;;;;;;;;;;;26.70;95.90;;;;;;5085026;28;19958;-71
2021/07/30 09:26:33;;;;;;;;;;;25.40;96.20;;;;;;5079002;28;19912;-71
2021/07/30 09:29:00;;;;;;;;;;;25.30;97.60;;;;;;5084553;28;19913;-71
2021/07/30 09:31:34;;;;;;;;;;;25.30;96.80;;;;;;5055224;28;19909;-70
2021/07/30 09:34:09;;;;;;;;;;;24.90;97.50;;;;;;5072705;28;19912;-71
2021/07/30 09:36:40;;;;;;;;;;;24.90;96.70;;;;;;5087946;28;19916;-71
2021/07/30 09:39:05;;;;;;;;;;;25.00;97.80;;;;;;5088651;28;20373;-70
2021/07/30 09:41:31;;;;;;;;;;;25.40;97.30;;;;;;5094730;28;20003;-70
2021/07/30 09:44:03;;;;;;;;;;;26.30;96.60;;;;;;5077766;28;19939;-71
2021/07/30 09:46:29;;;;;;;;;;;26.60;95.80;;;;;;5056845;28;20357;-70
2021/07/30 09:48:54;;;;;;;;;;;26.60;95.70;;;;;;5075318;28;19955;-71
2021/07/30 09:51:20;;;;;;;;;;;26.10;95.30;;;;;;5058759;28;19912;-70
2021/07/30 09:53:46;;;;;;;;;;;25.90;96.90;;;;;;5087464;28;19912;-70
2021/07/30 09:56:13;;;;;;;;;;;25.80;95.50;;;;;;5094658;28;19912;-70
2021/07/30 09:58:39;;;;;;;;;;;25.20;96.70;;;;;;5083891;28;19939;-71
2021/07/30 10:01:04;;;;;;;;;;;25.50;95.60;;;;;;5073113;28;19952;-70
2021/07/30 10:03:30;;;;;;;;;;;26.10;95.10;;;;;;5072976;28;19958;-69
2021/07/30 10:05:56;;;;;;;;;;;25.80;95.80;;;;;;5081352;28;19918;-72
2021/07/30 10:08:21;;;;;;;;;;;26.80;95.40;;;;;;5085649;28;19916;-71
2021/07/30 10:10:47;;;;;;;;;;;26.90;95.40;;;;;;5073106;28;19931;-71
2021/07/30 10:13:15;;;;;;;;;;;27.80;93.90;;;;;;5091054;28;19912;-70
2021/07/30 10:15:43;;;;;;;;;;;27.30;93.20;;;;;;5074619;28;19908;-70
2021/07/30 10:18:09;;;;;;;;;;;25.70;94.60;;;;;;5074002;28;19913;-71
2021/07/30 10:20:35;;;;;;;;;;;25.00;95.60;;;;;;5074298;28;19909;-71
2021/07/30 10:23:03;;;;;;;;;;;25.00;95.90;;;;;;5053968;28;20047;-71
2021/07/30 10:25:32;;;;;;;;;;;25.00;96.10;;;;;;5068736;28;20381;-70
2021/07/30 10:27:58;;;;;;;;;;;25.10;96.30;;;;;;5074419;28;19935;-71
2021/07/30 10:30:24;;;;;;;;;;;25.30;96.90;;;;;;5055958;28;19909;-71
2021/07/30 10:32:51;;;;;;;;;;;25.10;97.40;;;;;;5091447;28;19919;-71
2021/07/30 10:35:17;;;;;;;;;;;25.10;96.00;;;;;;5094118;28;20014;-71
2021/07/30 10:37:45;;;;;;;;;;;25.40;96.30;;;;;;5078175;28;19927;-70
2021/07/30 10:40:12;;;;;;;;;;;25.50;97.10;;;;;;5087449;28;19912;-71
2021/07/30 10:42:57;;;;;;;;;;;25.30;96.80;;;;;;5060511;28;20358;-71
2021/07/30 10:45:23;;;;;;;;;;;26.00;96.20;;;;;;5043966;28;19962;-71
2021/07/30 10:48:08;;;;;;;;;;;26.80;95.80;;;;;;5084984;28;19909;-70
2021/07/30 10:50:45;;;;;;;;;;;26.90;95.10;;;;;;5086402;28;19947;-71
2021/07/30 10:53:30;;;;;;;;;;;27.10;94.90;;;;;;5077960;28;19919;-71
2021/07/30 10:55:56;;;;;;;;;;;27.10;94.30;;;;;;5074453;28;19962;-71
2021/07/30 10:58:41;;;;;;;;;;;26.50;96.40;;;;;;5073355;28;19921;-71
2021/07/30 11:01:07;;;;;;;;;;;26.30;95.20;;;;;;5092876;28;19920;-71
2021/07/30 11:03:52;;;;;;;;;;;25.70;95.50;;;;;;5077704;28;19912;-71
2021/07/30 11:06:38;;;;;;;;;;;25.40;97.00;;;;;;5107019;28;19923;-71
2021/07/30 11:11:46;;;;;;;;;;;25.90;95.70;;;;;;5090964;27;19912;-72
2021/07/30 11:16:54;;;;;;;;;;;25.70;95.50;;;;;;5078437;28;20285;-70
2021/07/30 11:19:21;;;;;;;;;;;25.60;96.70;;;;;;5070560;28;19913;-71
2021/07/30 11:21:46;;;;;;;;;;;25.40;96.70;;;;;;5069915;28;20259;-71
2021/07/30 11:24:12;;;;;;;;;;;25.60;97.70;;;;;;5072409;28;19919;-70
2021/07/30 11:26:38;;;;;;;;;;;25.60;97.70;;;;;;5071201;28;19913;-70
2021/07/30 11:29:06;;;;;;;;;;;25.60;97.70;;;;;;5089055;28;19913;-68
2021/07/30 11:31:31;;;;;;;;;;;25.80;97.30;;;;;;5079327;28;19912;-68
2021/07/30 11:33:57;;;;;;;;;;;26.00;96.90;;;;;;5076999;28;19920;-67
2021/07/30 11:36:22;;;;;;;;;;;25.50;96.50;;;;;;5076196;28;19979;-68
2021/07/30 11:38:48;;;;;;;;;;;25.50;97.90;;;;;;5069320;28;19913;-69
2021/07/30 11:41:15;;;;;;;;;;;25.40;98.20;;;;;;5076762;28;20013;-70
2021/07/30 11:43:58;;;;;;;;;;;25.40;97.40;;;;;;5076993;28;19919;-70
2021/07/30 11:46:24;;;;;;;;;;;25.10;97.80;;;;;;5079401;28;19919;-69
2021/07/30 11:48:49;;;;;;;;;;;25.10;98.00;;;;;;5070137;28;19909;-69
2021/07/30 11:51:15;;;;;;;;;;;25.20;98.40;;;;;;5071258;28;19962;-70
2021/07/30 11:53:40;;;;;;;;;;;25.30;98.50;;;;;;5090555;28;20014;-69
2021/07/30 11:56:05;;;;;;;;;;;25.50;98.10;;;;;;5090117;28;19974;-70
2021/07/30 11:58:31;;;;;;;;;;;25.50;97.40;;;;;;5080133;28;19916;-68
2021/07/30 12:01:12;;;;;;;;;;;25.90;97.00;;;;;;5060351;28;20024;-69
2021/07/30 12:03:37;;;;;;;;;;;26.10;96.10;;;;;;5104379;28;19919;-69
2021/07/30 12:06:03;;;;;;;;;;;26.20;96.50;;;;;;5075702;28;19912;-69
2021/07/30 12:08:34;;;;;;;;;;;26.30;96.90;;;;;;5087174;28;20370;-70
2021/07/30 12:10:59;;;;;;;;;;;26.00;96.70;;;;;;5078769;28;20015;-70
2021/07/30 12:13:26;;;;;;;;;;;25.50;97.00;;;;;;5068755;28;20001;-70
2021/07/30 12:15:54;;;;;;;;;;;25.80;97.00;;;;;;5062243;28;19924;-69
2021/07/30 12:18:20;;;;;;;;;;;26.20;97.50;;;;;;5047339;28;19913;-70
2021/07/30 12:20:47;;;;;;;;;;;26.40;97.30;;;;;;5049115;28;19919;-70
2021/07/30 12:23:17;;;;;;;;;;;26.30;97.20;;;;;;5028471;28;20334;-70
2021/07/30 12:25:52;;;;;;;;;;;26.40;96.90;;;;;;5048477;28;19982;-73
2021/07/30 12:28:18;;;;;;;;;;;26.60;95.80;;;;;;5042836;28;20002;-71
2021/07/30 12:30:46;;;;;;;;;;;26.20;95.90;;;;;;5040569;28;19917;-70
2021/07/30 12:33:28;;;;;;;;;;;26.10;97.10;;;;;;5036189;28;20337;-70
2021/07/30 12:38:51;;;;;;;;;;;26.10;97.00;;;;;;5091092;27;19939;-68
2021/07/30 12:41:17;;;;;;;;;;;26.00;97.80;;;;;;5090937;28;19913;-68
2021/07/30 12:43:45;;;;;;;;;;;25.70;97.50;;;;;;5072367;28;20400;-68
2021/07/30 12:46:11;;;;;;;;;;;25.70;97.90;;;;;;5087767;28;19913;-68
2021/07/30 12:48:46;;;;;;;;;;;26.00;97.60;;;;;;5088126;28;19913;-68
2021/07/30 12:51:27;;;;;;;;;;;25.90;97.30;;;;;;5113088;28;19916;-68
2021/07/30 12:54:01;;;;;;;;;;;25.80;97.90;;;;;;5090593;28;19935;-67
2021/07/30 12:56:28;;;;;;;;;;;25.80;97.00;;;;;;5091522;28;19908;-68
2021/07/30 12:58:56;;;;;;;;;;;25.60;96.80;;;;;;5089477;28;19916;-68
2021/07/30 13:01:21;;;;;;;;;;;25.70;97.90;;;;;;5090275;28;19913;-71
2021/07/30 13:03:51;;;;;;;;;;;25.80;97.60;;;;;;5090890;28;19913;-70
2021/07/30 13:06:19;;;;;;;;;;;25.60;97.70;;;;;;5089693;28;19909;-70
2021/07/30 13:08:46;;;;;;;;;;;25.60;97.50;;;;;;5090408;28;19919;-68
2021/07/30 13:11:12;;;;;;;;;;;25.90;97.90;;;;;;5098412;28;19920;-68
2021/07/30 13:13:38;;;;;;;;;;;25.80;96.80;;;;;;5092416;28;19912;-68
2021/07/30 13:16:04;;;;;;;;;;;25.50;96.60;;;;;;5069155;28;20381;-68
2021/07/30 13:18:30;;;;;;;;;;;25.60;97.10;;;;;;5080288;28;19938;-68
2021/07/30 13:20:56;;;;;;;;;;;26.00;96.50;;;;;;5089288;28;19916;-68
2021/07/30 13:23:21;;;;;;;;;;;26.20;96.10;;;;;;5071712;28;19920;-68
2021/07/30 13:25:48;;;;;;;;;;;26.20;97.00;;;;;;5090115;28;20362;-68
2021/07/30 13:28:14;;;;;;;;;;;26.30;96.40;;;;;;5090202;28;19939;-68
2021/07/30 13:30:39;;;;;;;;;;;26.10;97.40;;;;;;5123192;28;20297;-68
2021/07/30 13:33:05;;;;;;;;;;;26.10;96.70;;;;;;5090090;28;19985;-68
2021/07/30 13:35:32;;;;;;;;;;;25.70;97.30;;;;;;5089635;28;19916;-68
2021/07/30 13:37:58;;;;;;;;;;;25.80;96.90;;;;;;5103556;28;21771;-68
2021/07/30 13:40:24;;;;;;;;;;;25.70;97.30;;;;;;5098998;28;19916;-68
2021/07/30 13:42:50;;;;;;;;;;;25.60;96.60;;;;;;5091935;28;19912;-68
2021/07/30 13:45:15;;;;;;;;;;;25.60;97.10;;;;;;5075217;28;19915;-68
2021/07/30 13:47:44;;;;;;;;;;;25.60;97.80;;;;;;5091845;28;19912;-68
2021/07/30 13:50:10;;;;;;;;;;;25.60;97.40;;;;;;5077759;28;20396;-71
2021/07/30 13:52:35;;;;;;;;;;;25.70;97.90;;;;;;5096768;28;19938;-68
2021/07/30 13:55:01;;;;;;;;;;;26.00;97.50;;;;;;5077960;28;19912;-68
2021/07/30 13:57:26;;;;;;;;;;;26.10;96.90;;;;;;5078468;28;19993;-68
2021/07/30 13:59:52;;;;;;;;;;;26.10;96.10;;;;;;5077810;28;19908;-68
2021/07/30 14:02:17;;;;;;;;;;;26.10;96.80;;;;;;5096609;28;19910;-67
2021/07/30 14:04:45;;;;;;;;;;;26.10;97.10;;;;;;5096150;28;20365;-69
2021/07/30 14:07:11;;;;;;;;;;;25.90;97.10;;;;;;5077136;28;20408;-72
2021/07/30 14:09:37;;;;;;;;;;;25.70;96.30;;;;;;5096240;28;19916;-68
2021/07/30 14:12:03;;;;;;;;;;;25.80;96.40;;;;;;5061289;28;19957;-69
2021/07/30 14:14:33;;;;;;;;;;;25.80;96.80;;;;;;5078118;28;20010;-69
2021/07/30 14:16:58;;;;;;;;;;;25.90;97.20;;;;;;5096187;28;20304;-69
2021/07/30 14:19:24;;;;;;;;;;;26.10;97.00;;;;;;5078136;28;19912;-69
2021/07/30 14:21:50;;;;;;;;;;;26.20;96.10;;;;;;5077605;28;19938;-71
2021/07/30 14:24:16;;;;;;;;;;;26.00;96.70;;;;;;5095929;28;19912;-69